Time;durP1;ratioP1;P1;durP2;ratioP2;P2;SDS_P1;SDS_P2;PMS_P1;PMS_P2;Temp;Humidity;BMP_temperature;BMP_pressure;BME280_temperature;BME280_humidity;BME280_pressure;Samples;Min_cycle;Max_cycle;Signal;HPM_P1;HPM_P2
2022/12/07 00:01:38;;;;;;;7.57;2.03;;;3.20;99.90;;;;;;5109693;28;20039;-87
2022/12/07 00:04:04;;;;;;;7.30;2.10;;;3.20;99.90;;;;;;5110893;28;20043;-86
2022/12/07 00:06:35;;;;;;;6.60;1.85;;;3.20;99.90;;;;;;5103263;28;20121;-87
2022/12/07 00:09:01;;;;;;;10.32;2.50;;;3.10;99.90;;;;;;5091677;28;20079;-87
2022/12/07 00:11:27;;;;;;;5.53;1.73;;;3.00;99.90;;;;;;5107601;28;20065;-87
2022/12/07 00:13:55;;;;;;;6.78;1.67;;;3.00;99.90;;;;;;5099452;28;20040;-87
2022/12/07 00:16:24;;;;;;;7.95;2.00;;;2.90;99.90;;;;;;5106478;28;20044;-87
2022/12/07 00:18:49;;;;;;;11.23;2.50;;;2.90;99.90;;;;;;5108776;28;20115;-87
2022/12/07 00:21:18;;;;;;;4.60;1.75;;;2.80;99.90;;;;;;5109194;28;20130;-87
2022/12/07 00:23:45;;;;;;;10.13;2.13;;;2.80;99.90;;;;;;5107828;28;20088;-87
2022/12/07 00:26:14;;;;;;;6.15;2.13;;;2.90;99.90;;;;;;5108868;28;20397;-87
2022/12/07 00:28:40;;;;;;;7.07;1.92;;;2.90;99.90;;;;;;5105219;28;20055;-87
2022/12/07 00:31:08;;;;;;;5.60;1.88;;;3.00;99.90;;;;;;5107712;28;20413;-87
2022/12/07 00:33:35;;;;;;;6.18;2.00;;;3.00;99.90;;;;;;5088409;28;20048;-87
2022/12/07 00:36:02;;;;;;;6.47;1.90;;;3.10;99.90;;;;;;5108112;28;20409;-86
2022/12/07 00:38:31;;;;;;;7.10;2.17;;;3.10;99.90;;;;;;5107933;28;20487;-87
2022/12/07 00:40:58;;;;;;;7.60;2.17;;;3.10;99.90;;;;;;5109049;28;20034;-86
2022/12/07 00:43:24;;;;;;;9.48;2.05;;;3.10;99.90;;;;;;5107371;28;20532;-87
2022/12/07 00:45:49;;;;;;;9.10;2.55;;;3.10;99.90;;;;;;5108767;28;20047;-87
2022/12/07 00:48:15;;;;;;;7.07;1.77;;;3.10;99.90;;;;;;5110396;28;20044;-86
2022/12/07 00:50:41;;;;;;;8.88;2.25;;;3.00;99.90;;;;;;5107601;28;20043;-87
2022/12/07 00:53:06;;;;;;;4.68;1.70;;;3.00;99.90;;;;;;5107758;28;20040;-87
2022/12/07 00:55:35;;;;;;;9.32;2.70;;;3.00;99.90;;;;;;5090483;28;20058;-86
2022/12/07 00:58:01;;;;;;;4.32;1.83;;;2.90;99.90;;;;;;5099561;28;20039;-86
2022/12/07 01:00:26;;;;;;;7.13;2.25;;;2.80;99.90;;;;;;5108364;28;20047;-86
2022/12/07 01:02:52;;;;;;;6.78;2.13;;;2.80;99.90;;;;;;5107468;28;20123;-86
2022/12/07 01:05:18;;;;;;;7.38;2.60;;;2.70;99.90;;;;;;5106539;28;20052;-86
2022/12/07 01:07:46;;;;;;;6.60;2.03;;;2.70;99.90;;;;;;5108050;28;20052;-86
2022/12/07 01:10:13;;;;;;;6.72;2.08;;;2.80;99.90;;;;;;5108282;28;20529;-86
2022/12/07 01:12:39;;;;;;;6.40;2.28;;;2.80;99.90;;;;;;5091690;28;20197;-87
2022/12/07 01:15:05;;;;;;;6.05;1.90;;;2.80;99.90;;;;;;5106999;28;20084;-86
2022/12/07 01:17:31;;;;;;;11.05;2.28;;;2.80;99.90;;;;;;5109409;28;20040;-86
2022/12/07 01:19:57;;;;;;;7.03;2.05;;;2.90;99.90;;;;;;5108371;28;20180;-86
2022/12/07 01:22:22;;;;;;;7.47;1.90;;;2.90;99.90;;;;;;5107424;28;20055;-86
2022/12/07 01:24:48;;;;;;;11.00;2.35;;;2.90;99.90;;;;;;5107418;28;20040;-87
2022/12/07 01:27:14;;;;;;;7.88;1.83;;;2.90;99.90;;;;;;5088456;28;20044;-87
2022/12/07 01:29:40;;;;;;;8.45;2.47;;;2.90;99.90;;;;;;5092300;28;20044;-86
2022/12/07 01:32:06;;;;;;;7.22;2.03;;;2.90;99.90;;;;;;5070841;28;20131;-86
2022/12/07 01:34:32;;;;;;;10.77;2.22;;;3.00;99.90;;;;;;5071276;28;20435;-86
2022/12/07 01:36:57;;;;;;;9.55;2.10;;;3.00;99.90;;;;;;5106927;28;20045;-86
2022/12/07 01:39:23;;;;;;;7.97;2.33;;;3.00;99.90;;;;;;5107041;28;20067;-86
2022/12/07 01:41:49;;;;;;;9.27;2.28;;;3.00;99.90;;;;;;5106289;28;20035;-86
2022/12/07 01:44:25;;;;;;;8.00;1.95;;;3.00;99.90;;;;;;5107282;28;20039;-87
2022/12/07 01:46:55;;;;;;;10.25;2.35;;;3.00;99.90;;;;;;5109449;28;20040;-86
2022/12/07 01:49:30;;;;;;;4.20;1.70;;;3.10;99.90;;;;;;5078938;28;20047;-86
2022/12/07 01:52:11;;;;;;;8.25;2.17;;;3.10;99.90;;;;;;5106430;28;20396;-86
2022/12/07 01:54:37;;;;;;;7.65;2.10;;;3.20;99.90;;;;;;5094438;28;20048;-86
2022/12/07 01:57:04;;;;;;;6.45;2.05;;;3.20;99.90;;;;;;5101395;28;20046;-86
2022/12/07 01:59:30;;;;;;;4.82;1.77;;;3.30;99.90;;;;;;5102537;28;20051;-86
2022/12/07 02:01:56;;;;;;;9.02;2.15;;;4.20;99.90;;;;;;5122565;28;20050;-86
2022/12/07 02:04:23;;;;;;;3.10;1.58;;;3.30;99.90;;;;;;5104757;28;20046;-87
2022/12/07 02:06:51;;;;;;;6.82;2.33;;;3.30;99.90;;;;;;5088713;28;20160;-86
2022/12/07 02:09:17;;;;;;;5.28;1.77;;;3.30;99.90;;;;;;5086463;28;20417;-86
2022/12/07 02:11:43;;;;;;;6.35;1.77;;;3.30;99.90;;;;;;5097277;28;20044;-86
2022/12/07 02:14:08;;;;;;;4.75;2.05;;;3.30;99.90;;;;;;5106615;28;20039;-86
2022/12/07 02:16:59;;;;;;;4.95;1.70;;;3.30;99.90;;;;;;5103827;28;20046;-86
2022/12/07 02:19:43;;;;;;;3.22;1.45;;;3.20;99.90;;;;;;5106235;28;20451;-87
2022/12/07 02:22:48;;;;;;;3.90;1.60;;;3.20;99.90;;;;;;5107539;28;20083;-87
2022/12/07 02:25:46;;;;;;;4.60;1.60;;;3.10;99.90;;;;;;5107738;28;20043;-86
2022/12/07 02:28:50;;;;;;;7.10;1.75;;;3.00;99.90;;;;;;5107569;28;20123;-87
2022/12/07 02:31:21;;;;;;;4.13;1.63;;;3.00;99.90;;;;;;5098466;28;20494;-87
2022/12/07 02:34:00;;;;;;;4.20;2.20;;;2.90;99.90;;;;;;5107293;28;20106;-87
2022/12/07 02:36:31;;;;;;;7.68;3.08;;;2.80;99.90;;;;;;5107628;28;20417;-87
2022/12/07 02:39:20;;;;;;;5.40;2.65;;;2.80;99.90;;;;;;5107447;28;20100;-87
2022/12/07 02:41:55;;;;;;;9.50;2.63;;;2.80;99.90;;;;;;5101724;28;20035;-87
2022/12/07 02:44:26;;;;;;;6.72;3.17;;;2.80;99.90;;;;;;5106928;28;20047;-86
2022/12/07 02:46:58;;;;;;;6.50;2.97;;;2.80;99.90;;;;;;5106418;28;20048;-87
2022/12/07 02:49:25;;;;;;;7.40;2.95;;;2.80;99.90;;;;;;5106790;28;20048;-86
2022/12/07 02:51:52;;;;;;;8.07;2.80;;;2.70;99.90;;;;;;5110532;28;20048;-86
2022/12/07 02:54:20;;;;;;;5.90;3.42;;;2.70;99.90;;;;;;5108793;28;20077;-86
2022/12/07 02:57:00;;;;;;;6.20;3.63;;;2.70;99.90;;;;;;5109310;28;20044;-85
2022/12/07 02:59:47;;;;;;;8.27;3.70;;;2.70;99.90;;;;;;5110733;28;20051;-86
2022/12/07 03:02:36;;;;;;;6.95;3.13;;;2.80;99.90;;;;;;5109888;28;20155;-85
2022/12/07 03:05:20;;;;;;;7.07;3.10;;;2.80;99.90;;;;;;5101542;28;20063;-87
2022/12/07 03:07:48;;;;;;;7.75;3.03;;;2.90;99.90;;;;;;5106538;28;20054;-87
2022/12/07 03:10:42;;;;;;;5.43;2.53;;;3.00;99.90;;;;;;5110425;28;20090;-87
2022/12/07 03:13:35;;;;;;;9.30;2.58;;;3.00;99.90;;;;;;5111230;27;20054;-86
2022/12/07 03:16:23;;;;;;;6.35;2.72;;;3.00;99.90;;;;;;5113217;27;20047;-86
2022/12/07 03:18:51;;;;;;;6.50;1.88;;;2.90;99.90;;;;;;5099915;28;20081;-87
2022/12/07 03:21:22;;;;;;;7.60;1.95;;;2.90;99.90;;;;;;5111628;28;20050;-86
2022/12/07 03:23:53;;;;;;;5.20;2.03;;;3.00;99.90;;;;;;5110642;28;20039;-86
2022/12/07 03:26:21;;;;;;;8.23;2.30;;;3.00;99.90;;;;;;5101491;28;20036;-86
2022/12/07 03:28:52;;;;;;;4.20;1.42;;;3.00;99.90;;;;;;5109742;28;20047;-86
2022/12/07 03:31:23;;;;;;;4.18;1.50;;;3.10;99.90;;;;;;5110733;28;20050;-87
2022/12/07 03:34:09;;;;;;;7.75;1.90;;;3.20;99.90;;;;;;5092759;28;20093;-87
2022/12/07 03:36:40;;;;;;;4.28;1.83;;;3.20;99.90;;;;;;5092043;28;20051;-87
2022/12/07 03:39:27;;;;;;;9.98;1.50;;;3.20;99.90;;;;;;5108877;28;20044;-87
2022/12/07 03:41:54;;;;;;;5.03;1.55;;;3.10;99.90;;;;;;5108698;28;20043;-86
2022/12/07 03:44:20;;;;;;;4.97;1.50;;;3.10;99.90;;;;;;5108887;28;20051;-87
2022/12/07 03:47:06;;;;;;;6.32;1.92;;;3.10;99.90;;;;;;5095466;28;20039;-87
2022/12/07 03:49:41;;;;;;;4.53;1.40;;;3.00;99.90;;;;;;5092561;28;20055;-86
2022/12/07 03:52:19;;;;;;;6.40;1.90;;;3.00;99.90;;;;;;5109094;28;20047;-87
2022/12/07 03:55:08;;;;;;;4.13;1.20;;;3.00;99.90;;;;;;5092684;28;20511;-87
2022/12/07 03:57:38;;;;;;;5.93;1.50;;;2.90;99.90;;;;;;5110148;28;20040;-87
2022/12/07 04:00:06;;;;;;;4.82;1.50;;;2.90;99.90;;;;;;5092660;28;20068;-87
2022/12/07 04:02:33;;;;;;;3.72;1.45;;;2.90;99.90;;;;;;5108103;28;20047;-86
2022/12/07 04:04:59;;;;;;;6.95;1.65;;;2.90;99.90;;;;;;5111462;28;20131;-87
2022/12/07 04:07:25;;;;;;;5.93;1.42;;;2.90;99.90;;;;;;5109712;28;20122;-87
2022/12/07 04:09:50;;;;;;;3.85;1.65;;;2.90;99.90;;;;;;5110755;28;20470;-87
2022/12/07 04:12:16;;;;;;;5.65;1.70;;;2.90;99.90;;;;;;5093139;28;20406;-87
2022/12/07 04:14:42;;;;;;;3.42;1.60;;;2.90;99.90;;;;;;5094535;28;20115;-87
2022/12/07 04:17:08;;;;;;;5.82;1.70;;;2.90;99.90;;;;;;5109076;28;20043;-87
2022/12/07 04:19:34;;;;;;;3.70;1.13;;;2.90;99.90;;;;;;5110047;28;20044;-86
2022/12/07 04:22:02;;;;;;;2.95;1.35;;;2.90;99.90;;;;;;5099205;28;20050;-87
2022/12/07 04:24:30;;;;;;;8.73;1.35;;;2.90;99.90;;;;;;5088118;28;20048;-86
2022/12/07 04:26:56;;;;;;;7.10;1.80;;;2.90;99.90;;;;;;5108977;28;20042;-87
2022/12/07 04:29:22;;;;;;;9.10;1.50;;;2.80;99.90;;;;;;5110466;27;20574;-87
2022/12/07 04:31:48;;;;;;;6.88;1.75;;;2.80;99.90;;;;;;5110083;28;20061;-88
2022/12/07 04:34:15;;;;;;;5.30;1.50;;;2.70;99.90;;;;;;5092129;28;20130;-87
2022/12/07 04:36:42;;;;;;;5.20;1.30;;;2.70;99.90;;;;;;5109167;28;20040;-87
2022/12/07 04:39:13;;;;;;;10.98;1.60;;;2.70;99.90;;;;;;5109795;28;20067;-87
2022/12/07 04:41:38;;;;;;;3.50;1.52;;;2.70;99.90;;;;;;5108244;28;20043;-87
2022/12/07 04:44:07;;;;;;;5.53;1.58;;;2.70;99.90;;;;;;5104251;28;20402;-86
2022/12/07 04:46:33;;;;;;;4.88;1.25;;;2.70;99.90;;;;;;5108732;28;20070;-87
2022/12/07 04:48:59;;;;;;;5.43;1.40;;;2.70;99.90;;;;;;5100659;28;20134;-87
2022/12/07 04:51:27;;;;;;;7.28;1.30;;;2.80;99.90;;;;;;5104405;28;20177;-87
2022/12/07 04:53:53;;;;;;;9.80;1.73;;;2.80;99.90;;;;;;5109139;27;20067;-87
2022/12/07 04:56:19;;;;;;;8.23;1.60;;;2.70;99.90;;;;;;5108818;28;20075;-87
2022/12/07 04:58:48;;;;;;;12.27;2.08;;;3.30;99.90;;;;;;5108675;28;20413;-86
2022/12/07 05:01:16;;;;;;;11.32;1.92;;;2.60;99.90;;;;;;5103134;28;20052;-87
2022/12/07 05:03:41;;;;;;;5.30;2.00;;;2.60;99.90;;;;;;5107368;28;20050;-86
2022/12/07 05:06:08;;;;;;;10.27;1.95;;;2.50;99.90;;;;;;5109369;28;20494;-86
2022/12/07 05:08:34;;;;;;;5.85;1.25;;;2.50;99.90;;;;;;5108693;28;20094;-87
2022/12/07 05:11:00;;;;;;;4.85;1.48;;;2.40;99.90;;;;;;5109025;28;20404;-86
2022/12/07 05:13:26;;;;;;;8.70;1.60;;;2.40;99.90;;;;;;5110247;28;20059;-87
2022/12/07 05:15:51;;;;;;;8.75;1.80;;;2.30;99.90;;;;;;5109616;28;20043;-87
2022/12/07 05:18:17;;;;;;;7.22;1.30;;;2.30;99.90;;;;;;5108611;27;20447;-86
2022/12/07 05:20:43;;;;;;;5.57;1.52;;;2.40;99.90;;;;;;5109672;28;20043;-87
2022/12/07 05:23:09;;;;;;;3.80;1.50;;;2.40;99.90;;;;;;5107568;28;20100;-87
2022/12/07 05:25:35;;;;;;;9.65;1.58;;;2.40;99.90;;;;;;5107970;28;20051;-87
2022/12/07 05:28:01;;;;;;;6.82;2.03;;;2.70;99.90;;;;;;5105469;28;20073;-87
2022/12/07 05:30:27;;;;;;;5.03;1.60;;;2.50;99.90;;;;;;5107018;28;20039;-87
2022/12/07 05:32:53;;;;;;;8.75;2.38;;;2.50;99.90;;;;;;5106943;28;20101;-87
2022/12/07 05:35:19;;;;;;;4.07;1.40;;;2.50;99.90;;;;;;5107656;28;20073;-87
2022/12/07 05:37:45;;;;;;;5.75;1.52;;;2.50;99.90;;;;;;5107047;28;20122;-87
2022/12/07 05:40:11;;;;;;;7.97;1.52;;;2.60;99.90;;;;;;5089811;28;20040;-86
2022/12/07 05:42:37;;;;;;;8.13;1.60;;;2.50;99.90;;;;;;5088771;28;20050;-87
2022/12/07 05:45:04;;;;;;;3.97;1.40;;;2.50;99.90;;;;;;5103225;28;20039;-87
2022/12/07 05:47:30;;;;;;;7.15;1.67;;;2.40;99.90;;;;;;5083033;28;20051;-86
2022/12/07 05:49:57;;;;;;;8.05;1.98;;;2.30;99.90;;;;;;5107516;28;20050;-86
2022/12/07 05:52:22;;;;;;;9.23;1.50;;;2.30;99.90;;;;;;5108011;28;20039;-86
2022/12/07 05:54:48;;;;;;;7.53;1.35;;;2.20;99.90;;;;;;5108641;28;20150;-86
2022/12/07 05:57:15;;;;;;;4.47;1.40;;;2.50;99.90;;;;;;5107203;28;20054;-87
2022/12/07 05:59:40;;;;;;;5.93;1.67;;;2.10;99.90;;;;;;5108215;28;20044;-86
2022/12/07 06:02:09;;;;;;;4.68;1.90;;;2.00;99.90;;;;;;5124691;28;20394;-86
2022/12/07 06:04:37;;;;;;;7.18;1.40;;;1.90;99.90;;;;;;5097579;28;20056;-87
2022/12/07 06:07:03;;;;;;;6.05;1.20;;;1.90;99.90;;;;;;5098817;28;20047;-86
2022/12/07 06:09:29;;;;;;;5.65;1.02;;;1.80;99.90;;;;;;5107449;28;20095;-87
2022/12/07 06:15:32;;;;;;;6.55;1.58;;;1.70;99.90;;;;;;5109780;28;20044;-87
2022/12/07 06:18:04;;;;;;;4.28;1.25;;;1.70;99.90;;;;;;5058585;28;20414;-87
2022/12/07 06:20:30;;;;;;;5.30;1.70;;;1.70;99.90;;;;;;5104396;28;20039;-86
2022/12/07 06:22:56;;;;;;;4.68;1.05;;;1.70;99.90;;;;;;5106533;28;20044;-87
2022/12/07 06:25:21;;;;;;;10.48;2.22;;;1.80;99.90;;;;;;5112015;28;20043;-87
2022/12/07 06:27:52;;;;;;;5.85;1.30;;;1.90;99.90;;;;;;5101581;28;20406;-87
2022/12/07 06:30:18;;;;;;;8.10;1.40;;;1.90;99.90;;;;;;5101737;27;20181;-87
2022/12/07 06:32:47;;;;;;;8.48;1.63;;;2.00;99.90;;;;;;5107550;28;20117;-87
2022/12/07 06:35:12;;;;;;;6.28;1.30;;;2.00;99.90;;;;;;5103251;28;20063;-88
2022/12/07 06:37:42;;;;;;;6.32;1.30;;;2.10;99.90;;;;;;5106267;28;20101;-87
2022/12/07 06:40:09;;;;;;;5.10;1.30;;;2.20;99.90;;;;;;5126994;28;20636;-87
2022/12/07 06:42:55;;;;;;;5.05;1.50;;;2.20;99.90;;;;;;5108681;28;20073;-87
2022/12/07 06:45:25;;;;;;;3.70;1.20;;;2.30;99.90;;;;;;5111807;28;20043;-87
2022/12/07 06:47:54;;;;;;;5.05;1.48;;;2.30;99.90;;;;;;5108830;28;20044;-88
2022/12/07 06:50:28;;;;;;;7.75;1.40;;;2.30;99.90;;;;;;5090072;28;20032;-87
2022/12/07 06:52:57;;;;;;;4.10;1.30;;;2.30;99.90;;;;;;5105777;28;20127;-89
2022/12/07 06:55:23;;;;;;;5.38;2.47;;;2.90;99.90;;;;;;5104896;28;20044;-88
2022/12/07 06:57:48;;;;;;;5.57;1.65;;;2.40;99.90;;;;;;5109490;28;20444;-89
2022/12/07 07:00:16;;;;;;;7.45;1.58;;;2.40;99.90;;;;;;5107754;28;20044;-89
2022/12/07 07:02:41;;;;;;;9.55;2.47;;;2.50;99.90;;;;;;5108636;28;20050;-89
2022/12/07 07:05:07;;;;;;;8.05;1.60;;;2.50;99.90;;;;;;5106964;28;20044;-88
2022/12/07 07:07:33;;;;;;;3.13;1.65;;;2.60;99.90;;;;;;5104075;28;20132;-88
2022/12/07 07:10:01;;;;;;;4.85;1.90;;;2.70;99.90;;;;;;5106777;28;20044;-88
2022/12/07 07:12:26;;;;;;;3.60;1.30;;;2.70;99.90;;;;;;5100991;28;20090;-88
2022/12/07 07:14:52;;;;;;;6.88;1.52;;;2.70;99.90;;;;;;5107712;28;20029;-88
2022/12/07 07:17:18;;;;;;;5.47;1.40;;;3.00;99.90;;;;;;5096468;28;20087;-88
2022/12/07 07:19:43;;;;;;;6.00;1.73;;;2.80;99.90;;;;;;5093228;28;20477;-88
2022/12/07 07:22:09;;;;;;;3.67;1.30;;;2.50;99.90;;;;;;5099916;28;20043;-88
2022/12/07 07:24:34;;;;;;;3.72;1.38;;;2.80;99.90;;;;;;5096232;28;20089;-88
2022/12/07 07:27:00;;;;;;;8.35;1.65;;;2.80;99.90;;;;;;5115440;28;20046;-88
2022/12/07 07:29:25;;;;;;;7.30;1.58;;;2.90;99.90;;;;;;5100652;28;20054;-88
2022/12/07 07:31:51;;;;;;;5.53;1.70;;;2.80;99.90;;;;;;5099014;28;20036;-87
2022/12/07 07:34:17;;;;;;;4.95;1.67;;;2.70;99.90;;;;;;5115616;28;20043;-89
2022/12/07 07:36:42;;;;;;;5.30;1.60;;;2.70;99.90;;;;;;5132546;27;20103;-88
2022/12/07 07:39:09;;;;;;;5.13;1.67;;;2.60;99.90;;;;;;5096680;28;20054;-88
2022/12/07 07:41:35;;;;;;;8.10;2.30;;;2.60;99.90;;;;;;5093927;28;20036;-87
2022/12/07 07:44:01;;;;;;;5.00;1.42;;;2.40;99.90;;;;;;5088923;28;20036;-88
2022/12/07 07:46:27;;;;;;;5.10;1.90;;;2.50;99.90;;;;;;5113866;28;20447;-88
2022/12/07 07:48:52;;;;;;;7.43;1.70;;;2.50;99.90;;;;;;5095680;28;20039;-87
2022/12/07 07:51:18;;;;;;;3.55;1.55;;;2.50;99.90;;;;;;5129157;27;20063;-88
2022/12/07 07:53:43;;;;;;;6.18;1.60;;;2.50;99.90;;;;;;5129228;27;20044;-88
2022/12/07 07:56:09;;;;;;;9.85;2.25;;;2.50;99.90;;;;;;5093053;28;20058;-88
2022/12/07 07:58:35;;;;;;;6.15;1.88;;;2.60;99.90;;;;;;5092264;28;21421;-87
2022/12/07 08:01:05;;;;;;;9.38;3.00;;;2.60;99.90;;;;;;5105891;28;20040;-87
2022/12/07 08:03:31;;;;;;;7.28;2.38;;;2.70;99.90;;;;;;5073405;28;20040;-88
2022/12/07 08:05:57;;;;;;;5.63;1.80;;;2.60;99.90;;;;;;5073804;28;20055;-87
2022/12/07 08:08:22;;;;;;;15.45;2.25;;;2.60;99.90;;;;;;5091333;28;20127;-88
2022/12/07 08:10:48;;;;;;;4.60;1.65;;;2.60;99.90;;;;;;5089984;28;20055;-88
2022/12/07 08:13:16;;;;;;;5.35;1.48;;;2.20;99.90;;;;;;5078454;28;20095;-87
2022/12/07 08:15:44;;;;;;;4.85;1.73;;;2.60;99.90;;;;;;5093998;28;20702;-88
2022/12/07 08:18:14;;;;;;;6.18;1.60;;;2.60;99.90;;;;;;5112978;28;20061;-88
2022/12/07 08:20:41;;;;;;;6.95;1.70;;;2.70;99.90;;;;;;5096416;28;20054;-88
2022/12/07 08:23:10;;;;;;;6.70;1.42;;;2.70;99.90;;;;;;5092852;28;20044;-87
2022/12/07 08:25:36;;;;;;;4.90;1.58;;;2.60;99.90;;;;;;5087193;28;20184;-87
2022/12/07 08:28:02;;;;;;;10.18;2.10;;;2.60;99.90;;;;;;5096492;28;20099;-88
2022/12/07 08:30:29;;;;;;;6.30;1.85;;;2.60;99.90;;;;;;5094720;28;20035;-87
2022/12/07 08:32:59;;;;;;;7.03;1.75;;;2.60;99.90;;;;;;5112307;28;20113;-87
2022/12/07 08:35:25;;;;;;;3.40;1.33;;;2.60;99.90;;;;;;5111008;28;20494;-87
2022/12/07 08:37:50;;;;;;;6.47;1.85;;;2.50;99.90;;;;;;5111780;28;20046;-87
2022/12/07 08:40:18;;;;;;;6.75;1.38;;;2.50;99.90;;;;;;5111362;28;20504;-88
2022/12/07 08:42:49;;;;;;;6.80;1.70;;;2.50;99.90;;;;;;5095127;28;20046;-87
2022/12/07 08:45:17;;;;;;;4.65;1.80;;;2.40;99.90;;;;;;5129996;27;20459;-87
2022/12/07 08:47:52;;;;;;;6.05;1.60;;;2.50;99.90;;;;;;5092780;28;20036;-87
2022/12/07 08:50:19;;;;;;;4.88;1.75;;;2.80;99.90;;;;;;5109944;28;20119;-88
2022/12/07 08:52:49;;;;;;;8.48;2.00;;;2.80;99.90;;;;;;5109263;28;20361;-88
2022/12/07 08:55:14;;;;;;;5.15;1.90;;;3.00;99.90;;;;;;5109847;28;20101;-88
2022/12/07 08:57:40;;;;;;;7.50;2.05;;;4.30;99.90;;;;;;5091069;28;20031;-87
2022/12/07 09:00:07;;;;;;;6.05;2.10;;;3.20;99.90;;;;;;5108955;28;20594;-87
2022/12/07 09:02:33;;;;;;;6.57;2.13;;;3.30;99.90;;;;;;5109623;28;20130;-87
2022/12/07 09:04:58;;;;;;;5.60;1.60;;;3.20;99.90;;;;;;5110023;28;20505;-88
2022/12/07 09:07:25;;;;;;;6.88;1.77;;;3.10;99.90;;;;;;5110677;28;20401;-85
2022/12/07 09:09:50;;;;;;;6.63;1.80;;;3.10;99.90;;;;;;5112388;28;20134;-87
2022/12/07 09:12:16;;;;;;;5.32;1.80;;;3.00;99.90;;;;;;5113259;28;20114;-86
2022/12/07 09:14:41;;;;;;;5.43;1.55;;;3.00;99.90;;;;;;5116141;28;20044;-87
2022/12/07 09:17:10;;;;;;;6.75;1.77;;;2.90;99.90;;;;;;5119426;28;20048;-87
2022/12/07 09:19:38;;;;;;;10.43;2.20;;;2.90;99.90;;;;;;5114467;28;20043;-87
2022/12/07 09:22:09;;;;;;;6.07;1.77;;;2.90;99.90;;;;;;5112692;28;20137;-87
2022/12/07 09:24:34;;;;;;;3.55;1.83;;;2.80;99.90;;;;;;5110642;28;20549;-86
2022/12/07 09:27:00;;;;;;;5.65;1.80;;;2.80;99.90;;;;;;5103632;28;20114;-86
2022/12/07 09:29:28;;;;;;;4.88;1.80;;;2.80;99.90;;;;;;5101151;28;20051;-86
2022/12/07 09:31:53;;;;;;;7.60;2.13;;;2.80;99.90;;;;;;5106406;27;20047;-87
2022/12/07 09:34:19;;;;;;;6.75;1.63;;;2.80;99.90;;;;;;5111832;27;20413;-87
2022/12/07 09:36:45;;;;;;;3.08;1.85;;;2.90;99.90;;;;;;5104007;28;20039;-88
2022/12/07 09:39:11;;;;;;;8.40;2.30;;;3.00;99.90;;;;;;5110796;28;20126;-88
2022/12/07 09:41:40;;;;;;;7.85;1.98;;;3.10;99.90;;;;;;5108926;28;20035;-87
2022/12/07 09:44:19;;;;;;;6.18;1.92;;;3.20;99.90;;;;;;5111293;28;20035;-87
2022/12/07 09:46:45;;;;;;;7.10;2.25;;;3.30;99.90;;;;;;5101827;28;20723;-87
2022/12/07 09:49:18;;;;;;;5.65;2.10;;;3.50;99.90;;;;;;5102908;28;20147;-87
2022/12/07 09:51:44;;;;;;;6.75;1.83;;;3.70;99.90;;;;;;5089752;28;20059;-88
2022/12/07 09:54:13;;;;;;;6.68;2.00;;;3.80;99.90;;;;;;5091534;28;20051;-87
2022/12/07 09:56:39;;;;;;;8.32;2.05;;;3.90;99.90;;;;;;5107069;28;20044;-86
2022/12/07 09:59:05;;;;;;;5.75;2.22;;;4.00;99.90;;;;;;5087264;28;20119;-85
2022/12/07 10:01:32;;;;;;;11.23;2.03;;;4.10;99.90;;;;;;5081147;28;20039;-85
2022/12/07 10:04:26;;;;;;;5.75;1.85;;;4.50;99.90;;;;;;5094333;28;20081;-85
2022/12/07 10:06:54;;;;;;;11.38;2.03;;;4.20;99.90;;;;;;5104531;28;20133;-87
2022/12/07 10:09:21;;;;;;;6.82;1.92;;;4.20;99.90;;;;;;5113086;28;20055;-86
2022/12/07 10:12:09;;;;;;;3.75;1.60;;;4.30;99.90;;;;;;5114064;28;20048;-87
2022/12/07 10:14:37;;;;;;;6.47;2.15;;;4.30;99.90;;;;;;5093460;28;20115;-87
2022/12/07 10:17:23;;;;;;;5.18;2.05;;;4.30;99.90;;;;;;5110551;28;20071;-86
2022/12/07 10:19:51;;;;;;;10.35;1.67;;;4.30;99.90;;;;;;5089239;28;20082;-86
2022/12/07 10:22:17;;;;;;;11.35;2.00;;;4.30;99.90;;;;;;5090075;28;20093;-86
2022/12/07 10:24:46;;;;;;;5.80;1.83;;;4.30;99.90;;;;;;5093116;28;20043;-87
2022/12/07 10:27:29;;;;;;;8.50;2.10;;;4.30;99.90;;;;;;5090505;28;20051;-86
2022/12/07 10:29:54;;;;;;;8.73;2.05;;;4.40;99.90;;;;;;5090138;28;20044;-86
2022/12/07 10:32:20;;;;;;;7.65;1.70;;;4.40;99.90;;;;;;5100117;28;20046;-85
2022/12/07 10:34:45;;;;;;;5.80;1.92;;;4.40;99.90;;;;;;5112681;28;20035;-85
2022/12/07 10:37:16;;;;;;;9.02;1.88;;;4.40;99.90;;;;;;5111994;28;20062;-85
2022/12/07 10:39:44;;;;;;;5.15;1.60;;;4.40;99.90;;;;;;5107807;28;20048;-85
2022/12/07 10:42:30;;;;;;;8.80;1.70;;;4.50;99.90;;;;;;5092267;28;20136;-85
2022/12/07 10:45:15;;;;;;;4.18;1.58;;;4.90;99.90;;;;;;5094002;28;20134;-85
2022/12/07 10:48:03;;;;;;;5.68;1.52;;;4.50;99.90;;;;;;5091365;28;20070;-84
2022/12/07 10:50:40;;;;;;;5.60;2.25;;;4.50;99.90;;;;;;5109545;28;20051;-86
2022/12/07 10:53:28;;;;;;;7.30;2.40;;;4.80;99.90;;;;;;5107513;28;20044;-86
2022/12/07 10:56:18;;;;;;;4.75;2.10;;;4.70;99.90;;;;;;5107932;28;20044;-87
2022/12/07 10:59:10;;;;;;;7.63;2.40;;;4.90;99.90;;;;;;5113556;28;20644;-87
2022/12/07 11:02:06;;;;;;;4.35;1.60;;;4.90;99.90;;;;;;5114052;28;20068;-87
2022/12/07 11:05:14;;;;;;;5.45;1.75;;;4.90;99.90;;;;;;5098072;28;20065;-87
2022/12/07 11:07:43;;;;;;;4.78;2.10;;;4.90;99.90;;;;;;5107828;28;20074;-86
2022/12/07 11:10:49;;;;;;;5.80;1.98;;;4.90;99.90;;;;;;5113837;27;20043;-86
2022/12/07 11:13:36;;;;;;;4.03;1.80;;;4.90;99.90;;;;;;5112340;28;20126;-88
2022/12/07 11:16:34;;;;;;;5.05;1.70;;;5.00;99.90;;;;;;5110538;28;20451;-89
2022/12/07 11:19:24;;;;;;;4.95;1.70;;;5.00;99.90;;;;;;5127770;27;20236;-90
2022/12/07 11:22:00;;;;;;;5.30;1.58;;;5.10;99.90;;;;;;5135005;27;20046;-87
2022/12/07 11:24:32;;;;;;;4.93;1.50;;;5.10;99.90;;;;;;5129849;27;20546;-90
2022/12/07 11:27:16;;;;;;;6.30;1.88;;;5.10;99.90;;;;;;5105665;28;20494;-90
2022/12/07 11:29:59;;;;;;;7.50;2.03;;;5.10;99.90;;;;;;5110079;28;20087;-89
2022/12/07 11:33:07;;;;;;;6.28;1.80;;;5.10;99.90;;;;;;5100679;28;20118;-90
2022/12/07 11:36:03;;;;;;;6.00;1.55;;;5.10;99.90;;;;;;5107978;28;20390;-88
2022/12/07 11:38:50;;;;;;;5.25;1.70;;;5.10;99.90;;;;;;5110731;28;20083;-87
2022/12/07 11:41:23;;;;;;;5.68;1.70;;;5.10;99.90;;;;;;5114641;28;20159;-88
2022/12/07 11:44:04;;;;;;;5.68;1.48;;;5.10;99.90;;;;;;5090161;28;20040;-88
2022/12/07 11:46:51;;;;;;;3.78;1.60;;;5.10;99.90;;;;;;5094738;28;20063;-88
2022/12/07 11:49:31;;;;;;;3.60;1.50;;;5.10;99.90;;;;;;5096909;28;20093;-88
2022/12/07 11:52:02;;;;;;;4.00;1.40;;;5.10;99.90;;;;;;5110227;28;20123;-87
2022/12/07 11:54:34;;;;;;;4.25;1.67;;;5.10;99.90;;;;;;5109881;28;20044;-87
2022/12/07 11:57:03;;;;;;;;;;;5.20;99.90;;;;;;5109113;28;20463;-87
2022/12/07 11:59:52;;;;;;;4.50;1.55;;;5.20;99.90;;;;;;5111307;28;19924;-86
2022/12/07 12:02:28;;;;;;;3.22;1.60;;;5.30;99.90;;;;;;5111068;28;20466;-88
2022/12/07 12:04:57;;;;;;;4.47;1.50;;;;;;;;;;5110635;28;20044;-89
2022/12/07 12:07:26;;;;;;;6.00;1.60;;;5.40;99.90;;;;;;5111927;28;20086;-87
2022/12/07 12:10:00;;;;;;;6.40;1.70;;;5.50;99.90;;;;;;5110693;28;20485;-87
2022/12/07 12:12:52;;;;;;;5.90;1.58;;;5.50;99.90;;;;;;5107614;28;20086;-87
2022/12/07 12:15:49;;;;;;;4.27;1.30;;;5.70;99.90;;;;;;5082407;28;20051;-88
2022/12/07 12:18:26;;;;;;;5.28;1.63;;;5.80;99.90;;;;;;5093786;28;20051;-87
2022/12/07 12:21:04;;;;;;;5.85;1.77;;;5.80;99.90;;;;;;5102031;28;20465;-88
2022/12/07 12:23:42;;;;;;;6.35;1.30;;;5.90;99.90;;;;;;5109724;28;20054;-87
2022/12/07 12:26:16;;;;;;;6.82;1.58;;;5.90;99.90;;;;;;5109440;28;20058;-87
2022/12/07 12:28:50;;;;;;;3.22;1.50;;;5.90;99.90;;;;;;5093999;28;20147;-88
2022/12/07 12:31:22;;;;;;;2.92;1.20;;;5.80;99.90;;;;;;5110483;28;20035;-87
2022/12/07 12:33:54;;;;;;;8.35;1.77;;;5.80;99.90;;;;;;5108699;27;20040;-87
2022/12/07 12:36:30;;;;;;;3.07;1.47;;;5.80;99.90;;;;;;5089007;28;20044;-87
2022/12/07 12:38:58;;;;;;;8.20;1.77;;;5.90;99.90;;;;;;5110389;28;20051;-87
2022/12/07 12:42:05;;;;;;;5.50;1.45;;;5.90;99.90;;;;;;5108657;28;20052;-87
2022/12/07 12:44:33;;;;;;;8.40;1.90;;;5.90;99.90;;;;;;5110381;28;20052;-86
2022/12/07 12:47:41;;;;;;;6.35;2.55;;;6.00;99.90;;;;;;5107002;28;20471;-86
2022/12/07 12:50:24;;;;;;;5.00;1.27;;;6.00;99.90;;;;;;5092111;28;20051;-87
2022/12/07 12:52:52;;;;;;;;;;;6.10;99.90;;;;;;5107072;28;20074;-87
2022/12/07 12:55:21;;;;;;;6.07;1.55;;;6.10;99.90;;;;;;5108713;28;19926;-88
2022/12/07 12:58:29;;;;;;;4.45;1.80;;;6.10;99.90;;;;;;5107159;28;20044;-87
2022/12/07 13:01:38;;;;;;;7.30;1.70;;;6.00;99.90;;;;;;5108597;28;20051;-87
2022/12/07 13:04:17;;;;;;;5.18;2.40;;;5.90;99.90;;;;;;5067481;28;20394;-87
2022/12/07 13:06:43;;;;;;;5.20;1.00;;;5.90;99.90;;;;;;5088621;28;20055;-89
2022/12/07 13:09:31;;;;;;;7.00;1.20;;;5.80;99.90;;;;;;5107181;28;20039;-87
2022/12/07 13:12:11;;;;;;;4.03;1.90;;;5.80;99.90;;;;;;5107291;28;20061;-87
2022/12/07 13:14:53;;;;;;;5.75;1.38;;;5.80;99.90;;;;;;5091525;28;20047;-87
2022/12/07 13:17:30;;;;;;;6.63;1.63;;;5.80;99.90;;;;;;5096648;28;20036;-81
2022/12/07 13:19:58;;;;;;;2.83;0.95;;;5.70;99.90;;;;;;5108177;28;20080;-80
2022/12/07 13:22:38;;;;;;;3.97;1.08;;;5.70;99.90;;;;;;5107863;28;20040;-80
2022/12/07 13:25:19;;;;;;;2.08;0.95;;;5.60;99.90;;;;;;5109498;28;20059;-81